Westwego, LA

3:18 PM CDT on September 01, 2015 (GMT -0500)
Hickory Ridge Estates | Change Station
CLOSE
Current Station
Personal Weather Station
Location: Harahan, LA
Elevation: 11 ft
Nearby Weather Stations

Elev 11 ft 29.95 °N, 90.20 °W | Updated 7 minutes ago

Mostly Cloudy
Mostly Cloudy
90.6 °F
Feels Like 99 °F
N
2.0
Wind Variable Wind from East
Gusts 4.0 mph

Today
High -- | Low -- °F
--% Chance of Precip.
Yesterday
High -- | Low -- °F
Precip. -- in
6:37 AM 7:23 PM
Waning Gibbous, 86% visible
Pressure 30.05 in
Visibility 10.0 miles
Clouds Scattered Clouds 5000 ft
Mostly Cloudy 25000 ft
Heat Index 99 °F
Dew Point 73 °F
Humidity 56%
Rainfall 0.00 in
Snow Depth Not available.
UV 6 out of 12
Pollen 7.90 out of 12
Ozone Moderate
PM2.5 Moderate
Flu Activity Not available.
METAR KMSY 011953Z VRB03KT 10SM SCT050 BKN250 33/21 A3004 RMK AO2 SLP174 T03280211

More Conditions Fewer Conditions

Pressure 30.05 in
Visibility 10.0 miles
Clouds Scattered Clouds 5000 ft
Mostly Cloudy 25000 ft
Heat Index 99 °F
Dew Point 73 °F
Humidity 56%
Rainfall 0.00 in
Snow Depth Not available.
UV 6 out of 12
Pollen 7.90 out of 12
Ozone Moderate
PM2.5 Moderate
Flu Activity Not available.
METAR KMSY 011953Z VRB03KT 10SM SCT050 BKN250 33/21 A3004 RMK AO2 SLP174 T03280211

More Conditions Fewer Conditions

10-Day Weather Forecast

Almanac

Astronomy

Sep. 01, 2015 Rise Set
Actual Time 6:37 AM CDT 7:23 PM CDT
Civil Twilight 6:13 AM CDT 7:47 PM CDT
Nautical Twilight 5:44 AM CDT 8:16 PM CDT
Astronomical Twilight 5:15 AM CDT 8:45 PM CDT
Moon 9:38 PM CDT 9:42 AM CDT
Length of Visible Light 13h 34m
Length of Day
12h 45m
Tomorrow will be 1m 43s shorter.
Waning Gibbous, 86% of the Moon is Illuminated
Today
Waning Gibbous
Sep 5
Last Quarter
Sep 13
New
Sep 21
First Quarter
Sep 27
Full

Today's Extremes

State Highs State Lows

Community

WunderPhotos

Upload Photos

1,851,605 photos uploaded!

Nearby

Air Quality

  Air Quality AQ Index Pollutant
Yesterday Moderate
OZONE
Yesterday Moderate
PM2.5
Current Moderate
OZONE
Current Moderate
PM2.5
Tuesday Moderate
OZONE
Tuesday Moderate
PM2.5
Wednesday Moderate
OZONE
Wednesday Moderate
PM2.5
Thursday Moderate
OZONE
Thursday Moderate
PM2.5

Snow Depth

Station Depth Elevation
No new snow has been reported.

Earthquake Activity

City Distance Mag. Time & Date
No recent earthquake activity has been reported nearby.
Minimum magnitude displayed is 2.5.

Coastal Water Temperatures

Place Temperature
New Canal, LA 86.0 °F
Shell Beach, LA 88.0 °F
Bayou Gauche, LA 89.1 °F

Nearby Weather Stations